sensor_id;sensor_type;location;lat;lon;timestamp;P1;durP1;ratioP1;P2;durP2;ratioP2
47519;SDS011;33252;48.122;11.538;2022-11-20T00:02:21;3.15;;;1.10;;
47519;SDS011;33252;48.122;11.538;2022-11-20T00:08:14;2.28;;;1.30;;
47519;SDS011;33252;48.122;11.538;2022-11-20T00:14:01;3.10;;;1.58;;
47519;SDS011;33252;48.122;11.538;2022-11-20T00:16:29;4.10;;;2.40;;
47519;SDS011;33252;48.122;11.538;2022-11-20T00:52:29;3.05;;;2.28;;
47519;SDS011;33252;48.122;11.538;2022-11-20T00:54:57;4.30;;;2.03;;
47519;SDS011;33252;48.122;11.538;2022-11-20T00:57:26;2.95;;;1.42;;
47519;SDS011;33252;48.122;11.538;2022-11-20T01:03:18;3.25;;;1.70;;
47519;SDS011;33252;48.122;11.538;2022-11-20T01:05:47;2.92;;;1.92;;
47519;SDS011;33252;48.122;11.538;2022-11-20T01:08:19;3.13;;;2.00;;
47519;SDS011;33252;48.122;11.538;2022-11-20T01:10:45;3.90;;;2.00;;
47519;SDS011;33252;48.122;11.538;2022-11-20T01:13:11;5.68;;;2.20;;
47519;SDS011;33252;48.122;11.538;2022-11-20T01:15:55;2.83;;;1.50;;
47519;SDS011;33252;48.122;11.538;2022-11-20T01:18:20;3.90;;;1.70;;
47519;SDS011;33252;48.122;11.538;2022-11-20T01:20:46;3.53;;;1.95;;
47519;SDS011;33252;48.122;11.538;2022-11-20T01:23:11;3.83;;;2.15;;
47519;SDS011;33252;48.122;11.538;2022-11-20T01:25:37;2.75;;;1.80;;
47519;SDS011;33252;48.122;11.538;2022-11-20T01:28:03;3.03;;;1.48;;
47519;SDS011;33252;48.122;11.538;2022-11-20T01:30:28;3.13;;;1.73;;
47519;SDS011;33252;48.122;11.538;2022-11-20T01:36:16;2.95;;;1.88;;
47519;SDS011;33252;48.122;11.538;2022-11-20T01:38:43;3.13;;;2.63;;
47519;SDS011;33252;48.122;11.538;2022-11-20T01:41:10;3.17;;;1.80;;
47519;SDS011;33252;48.122;11.538;2022-11-20T01:43:59;2.90;;;1.92;;
47519;SDS011;33252;48.122;11.538;2022-11-20T01:46:26;3.75;;;2.33;;
47519;SDS011;33252;48.122;11.538;2022-11-20T01:48:59;2.28;;;1.67;;
47519;SDS011;33252;48.122;11.538;2022-11-20T01:51:39;2.28;;;1.45;;
47519;SDS011;33252;48.122;11.538;2022-11-20T01:54:10;2.05;;;1.30;;
47519;SDS011;33252;48.122;11.538;2022-11-20T01:56:44;3.28;;;1.55;;
47519;SDS011;33252;48.122;11.538;2022-11-20T01:59:12;5.72;;;3.13;;
47519;SDS011;33252;48.122;11.538;2022-11-20T02:01:40;3.28;;;2.25;;
47519;SDS011;33252;48.122;11.538;2022-11-20T02:04:06;3.90;;;1.88;;
47519;SDS011;33252;48.122;11.538;2022-11-20T02:06:40;3.03;;;1.70;;
47519;SDS011;33252;48.122;11.538;2022-11-20T02:09:11;3.97;;;1.52;;
47519;SDS011;33252;48.122;11.538;2022-11-20T02:11:40;3.42;;;2.05;;
47519;SDS011;33252;48.122;11.538;2022-11-20T02:14:05;3.60;;;1.85;;
47519;SDS011;33252;48.122;11.538;2022-11-20T02:16:35;4.18;;;2.13;;
47519;SDS011;33252;48.122;11.538;2022-11-20T02:19:04;5.07;;;2.03;;
47519;SDS011;33252;48.122;11.538;2022-11-20T02:24:19;2.65;;;1.80;;
47519;SDS011;33252;48.122;11.538;2022-11-20T02:29:23;2.55;;;1.75;;
47519;SDS011;33252;48.122;11.538;2022-11-20T02:31:59;5.18;;;2.13;;
47519;SDS011;33252;48.122;11.538;2022-11-20T02:34:27;3.10;;;2.22;;
47519;SDS011;33252;48.122;11.538;2022-11-20T02:36:53;3.78;;;1.90;;
47519;SDS011;33252;48.122;11.538;2022-11-20T02:39:24;3.55;;;2.17;;
47519;SDS011;33252;48.122;11.538;2022-11-20T02:41:53;3.20;;;2.15;;
47519;SDS011;33252;48.122;11.538;2022-11-20T02:44:20;2.95;;;1.98;;
47519;SDS011;33252;48.122;11.538;2022-11-20T02:46:46;3.65;;;1.95;;
47519;SDS011;33252;48.122;11.538;2022-11-20T02:49:11;3.92;;;2.03;;
47519;SDS011;33252;48.122;11.538;2022-11-20T02:51:37;3.22;;;2.20;;
47519;SDS011;33252;48.122;11.538;2022-11-20T02:54:07;2.45;;;1.90;;
47519;SDS011;33252;48.122;11.538;2022-11-20T02:56:33;2.73;;;2.00;;
47519;SDS011;33252;48.122;11.538;2022-11-20T02:58:59;3.55;;;1.90;;
47519;SDS011;33252;48.122;11.538;2022-11-20T03:01:24;4.03;;;2.20;;
47519;SDS011;33252;48.122;11.538;2022-11-20T03:03:50;4.00;;;2.20;;
47519;SDS011;33252;48.122;11.538;2022-11-20T03:06:17;5.97;;;2.42;;
47519;SDS011;33252;48.122;11.538;2022-11-20T03:08:42;3.28;;;2.13;;
47519;SDS011;33252;48.122;11.538;2022-11-20T03:11:08;3.22;;;2.10;;
47519;SDS011;33252;48.122;11.538;2022-11-20T03:13:37;3.10;;;2.25;;
47519;SDS011;33252;48.122;11.538;2022-11-20T03:16:10;3.08;;;2.00;;
47519;SDS011;33252;48.122;11.538;2022-11-20T03:18:40;4.10;;;2.00;;
47519;SDS011;33252;48.122;11.538;2022-11-20T03:21:07;3.95;;;1.98;;
47519;SDS011;33252;48.122;11.538;2022-11-20T03:23:34;3.08;;;2.28;;
47519;SDS011;33252;48.122;11.538;2022-11-20T03:26:08;4.80;;;2.45;;
47519;SDS011;33252;48.122;11.538;2022-11-20T03:28:48;3.15;;;2.30;;
47519;SDS011;33252;48.122;11.538;2022-11-20T03:31:16;4.90;;;1.83;;
47519;SDS011;33252;48.122;11.538;2022-11-20T03:33:43;4.47;;;2.40;;
47519;SDS011;33252;48.122;11.538;2022-11-20T03:36:11;3.28;;;2.08;;
47519;SDS011;33252;48.122;11.538;2022-11-20T03:38:37;5.03;;;2.42;;
47519;SDS011;33252;48.122;11.538;2022-11-20T03:41:04;3.55;;;2.40;;
47519;SDS011;33252;48.122;11.538;2022-11-20T03:43:32;6.97;;;2.53;;
47519;SDS011;33252;48.122;11.538;2022-11-20T03:45:58;4.38;;;2.72;;
47519;SDS011;33252;48.122;11.538;2022-11-20T03:48:24;3.17;;;2.08;;
47519;SDS011;33252;48.122;11.538;2022-11-20T03:50:51;3.72;;;1.80;;
47519;SDS011;33252;48.122;11.538;2022-11-20T03:53:17;2.55;;;1.90;;
47519;SDS011;33252;48.122;11.538;2022-11-20T03:55:43;2.90;;;2.22;;
47519;SDS011;33252;48.122;11.538;2022-11-20T03:58:12;5.88;;;2.47;;
47519;SDS011;33252;48.122;11.538;2022-11-20T04:00:38;3.15;;;2.33;;
47519;SDS011;33252;48.122;11.538;2022-11-20T04:03:04;3.33;;;2.28;;
47519;SDS011;33252;48.122;11.538;2022-11-20T04:05:33;3.80;;;2.25;;
47519;SDS011;33252;48.122;11.538;2022-11-20T04:07:59;4.00;;;2.55;;
47519;SDS011;33252;48.122;11.538;2022-11-20T04:10:25;3.00;;;1.90;;
47519;SDS011;33252;48.122;11.538;2022-11-20T04:12:50;6.72;;;2.53;;
47519;SDS011;33252;48.122;11.538;2022-11-20T04:15:16;2.95;;;2.20;;
47519;SDS011;33252;48.122;11.538;2022-11-20T04:17:42;3.38;;;2.00;;
47519;SDS011;33252;48.122;11.538;2022-11-20T04:20:07;2.88;;;2.20;;
47519;SDS011;33252;48.122;11.538;2022-11-20T04:22:33;2.33;;;1.98;;
47519;SDS011;33252;48.122;11.538;2022-11-20T04:25:01;3.45;;;2.30;;
47519;SDS011;33252;48.122;11.538;2022-11-20T04:27:27;3.50;;;1.60;;
47519;SDS011;33252;48.122;11.538;2022-11-20T04:29:53;3.30;;;1.88;;
47519;SDS011;33252;48.122;11.538;2022-11-20T04:32:18;5.18;;;2.33;;
47519;SDS011;33252;48.122;11.538;2022-11-20T04:34:47;3.92;;;2.00;;
47519;SDS011;33252;48.122;11.538;2022-11-20T04:37:13;3.08;;;2.17;;
47519;SDS011;33252;48.122;11.538;2022-11-20T04:39:39;3.65;;;1.98;;
47519;SDS011;33252;48.122;11.538;2022-11-20T04:42:05;3.40;;;2.22;;
47519;SDS011;33252;48.122;11.538;2022-11-20T04:44:49;2.80;;;1.90;;
47519;SDS011;33252;48.122;11.538;2022-11-20T04:47:14;4.28;;;2.42;;
47519;SDS011;33252;48.122;11.538;2022-11-20T04:49:40;4.18;;;2.63;;
47519;SDS011;33252;48.122;11.538;2022-11-20T04:52:05;5.63;;;2.60;;
47519;SDS011;33252;48.122;11.538;2022-11-20T04:54:31;3.05;;;2.58;;
47519;SDS011;33252;48.122;11.538;2022-11-20T04:56:57;4.18;;;2.63;;
47519;SDS011;33252;48.122;11.538;2022-11-20T04:59:25;5.53;;;3.17;;
47519;SDS011;33252;48.122;11.538;2022-11-20T05:01:51;3.78;;;2.22;;
47519;SDS011;33252;48.122;11.538;2022-11-20T05:04:16;4.50;;;1.98;;
47519;SDS011;33252;48.122;11.538;2022-11-20T05:06:42;4.78;;;2.40;;
47519;SDS011;33252;48.122;11.538;2022-11-20T05:09:10;5.35;;;2.13;;
47519;SDS011;33252;48.122;11.538;2022-11-20T05:11:39;4.05;;;2.75;;
47519;SDS011;33252;48.122;11.538;2022-11-20T05:14:07;5.72;;;3.25;;
47519;SDS011;33252;48.122;11.538;2022-11-20T05:16:33;11.57;;;3.40;;
47519;SDS011;33252;48.122;11.538;2022-11-20T05:18:59;2.80;;;1.90;;
47519;SDS011;33252;48.122;11.538;2022-11-20T05:21:25;4.05;;;2.20;;
47519;SDS011;33252;48.122;11.538;2022-11-20T05:23:51;4.40;;;2.25;;
47519;SDS011;33252;48.122;11.538;2022-11-20T05:26:22;3.25;;;2.22;;
47519;SDS011;33252;48.122;11.538;2022-11-20T05:28:48;3.90;;;2.28;;
47519;SDS011;33252;48.122;11.538;2022-11-20T05:31:19;3.83;;;2.60;;
47519;SDS011;33252;48.122;11.538;2022-11-20T05:33:46;6.35;;;2.60;;
47519;SDS011;33252;48.122;11.538;2022-11-20T05:36:13;4.00;;;2.58;;
47519;SDS011;33252;48.122;11.538;2022-11-20T05:38:42;5.38;;;2.55;;
47519;SDS011;33252;48.122;11.538;2022-11-20T05:41:26;4.95;;;2.60;;
47519;SDS011;33252;48.122;11.538;2022-11-20T05:43:51;4.35;;;2.63;;
47519;SDS011;33252;48.122;11.538;2022-11-20T05:46:23;4.50;;;2.58;;
47519;SDS011;33252;48.122;11.538;2022-11-20T05:48:49;7.93;;;3.03;;
47519;SDS011;33252;48.122;11.538;2022-11-20T05:51:16;3.28;;;2.05;;
47519;SDS011;33252;48.122;11.538;2022-11-20T05:53:43;4.90;;;2.70;;
47519;SDS011;33252;48.122;11.538;2022-11-20T05:56:10;3.80;;;2.35;;
47519;SDS011;33252;48.122;11.538;2022-11-20T05:58:38;5.15;;;2.95;;
47519;SDS011;33252;48.122;11.538;2022-11-20T06:01:05;4.43;;;2.50;;
47519;SDS011;33252;48.122;11.538;2022-11-20T06:03:57;3.67;;;2.35;;
47519;SDS011;33252;48.122;11.538;2022-11-20T06:06:23;4.60;;;2.22;;
47519;SDS011;33252;48.122;11.538;2022-11-20T06:08:50;3.72;;;2.33;;
47519;SDS011;33252;48.122;11.538;2022-11-20T06:11:16;3.63;;;2.00;;
47519;SDS011;33252;48.122;11.538;2022-11-20T06:13:42;4.78;;;2.13;;
47519;SDS011;33252;48.122;11.538;2022-11-20T06:16:09;5.28;;;2.90;;
47519;SDS011;33252;48.122;11.538;2022-11-20T06:18:35;3.47;;;2.42;;
47519;SDS011;33252;48.122;11.538;2022-11-20T06:21:05;2.83;;;1.90;;
47519;SDS011;33252;48.122;11.538;2022-11-20T06:23:37;3.90;;;2.60;;
47519;SDS011;33252;48.122;11.538;2022-11-20T06:26:03;3.47;;;2.17;;
47519;SDS011;33252;48.122;11.538;2022-11-20T06:28:31;3.33;;;2.22;;
47519;SDS011;33252;48.122;11.538;2022-11-20T06:30:57;2.47;;;1.65;;
47519;SDS011;33252;48.122;11.538;2022-11-20T06:33:23;3.10;;;1.75;;
47519;SDS011;33252;48.122;11.538;2022-11-20T06:35:49;5.13;;;2.25;;
47519;SDS011;33252;48.122;11.538;2022-11-20T06:38:14;4.22;;;1.38;;
47519;SDS011;33252;48.122;11.538;2022-11-20T06:40:41;3.20;;;2.28;;
47519;SDS011;33252;48.122;11.538;2022-11-20T06:43:07;3.72;;;1.80;;
47519;SDS011;33252;48.122;11.538;2022-11-20T06:45:36;3.17;;;1.48;;
47519;SDS011;33252;48.122;11.538;2022-11-20T06:48:02;4.38;;;1.30;;
47519;SDS011;33252;48.122;11.538;2022-11-20T06:50:28;3.03;;;1.30;;
47519;SDS011;33252;48.122;11.538;2022-11-20T06:52:54;2.50;;;1.95;;
47519;SDS011;33252;48.122;11.538;2022-11-20T06:55:20;2.20;;;1.75;;
47519;SDS011;33252;48.122;11.538;2022-11-20T06:57:45;3.03;;;1.23;;
47519;SDS011;33252;48.122;11.538;2022-11-20T07:00:11;1.73;;;1.17;;
47519;SDS011;33252;48.122;11.538;2022-11-20T07:02:37;2.60;;;1.25;;
47519;SDS011;33252;48.122;11.538;2022-11-20T07:05:03;3.10;;;1.27;;
47519;SDS011;33252;48.122;11.538;2022-11-20T07:07:29;1.73;;;1.45;;
47519;SDS011;33252;48.122;11.538;2022-11-20T07:09:54;2.88;;;1.02;;
47519;SDS011;33252;48.122;11.538;2022-11-20T07:12:20;1.98;;;1.15;;
47519;SDS011;33252;48.122;11.538;2022-11-20T07:14:46;2.47;;;1.40;;
47519;SDS011;33252;48.122;11.538;2022-11-20T07:17:11;2.13;;;1.92;;
47519;SDS011;33252;48.122;11.538;2022-11-20T07:19:37;2.05;;;1.27;;
47519;SDS011;33252;48.122;11.538;2022-11-20T07:22:03;4.97;;;1.70;;
47519;SDS011;33252;48.122;11.538;2022-11-20T07:24:29;2.42;;;1.77;;
47519;SDS011;33252;48.122;11.538;2022-11-20T07:26:55;3.63;;;2.45;;
47519;SDS011;33252;48.122;11.538;2022-11-20T07:29:20;2.83;;;1.88;;
47519;SDS011;33252;48.122;11.538;2022-11-20T07:31:46;3.72;;;1.92;;
47519;SDS011;33252;48.122;11.538;2022-11-20T07:34:12;3.20;;;2.28;;
47519;SDS011;33252;48.122;11.538;2022-11-20T07:36:37;4.43;;;2.13;;
47519;SDS011;33252;48.122;11.538;2022-11-20T07:39:03;4.13;;;2.10;;
47519;SDS011;33252;48.122;11.538;2022-11-20T07:41:29;4.45;;;2.90;;
47519;SDS011;33252;48.122;11.538;2022-11-20T07:43:55;4.70;;;2.40;;
47519;SDS011;33252;48.122;11.538;2022-11-20T07:46:20;4.95;;;2.58;;
47519;SDS011;33252;48.122;11.538;2022-11-20T07:48:46;3.95;;;1.98;;
47519;SDS011;33252;48.122;11.538;2022-11-20T07:51:11;6.25;;;2.92;;
47519;SDS011;33252;48.122;11.538;2022-11-20T07:53:38;3.70;;;2.05;;
47519;SDS011;33252;48.122;11.538;2022-11-20T07:56:04;3.72;;;2.42;;
47519;SDS011;33252;48.122;11.538;2022-11-20T07:58:30;2.95;;;1.95;;
47519;SDS011;33252;48.122;11.538;2022-11-20T08:00:58;5.28;;;2.05;;
47519;SDS011;33252;48.122;11.538;2022-11-20T08:03:28;3.65;;;2.00;;
47519;SDS011;33252;48.122;11.538;2022-11-20T08:05:53;2.33;;;1.50;;
47519;SDS011;33252;48.122;11.538;2022-11-20T08:08:19;2.70;;;2.10;;
47519;SDS011;33252;48.122;11.538;2022-11-20T08:10:46;3.05;;;2.30;;
47519;SDS011;33252;48.122;11.538;2022-11-20T08:13:11;3.25;;;2.10;;
47519;SDS011;33252;48.122;11.538;2022-11-20T08:15:56;3.45;;;1.95;;
47519;SDS011;33252;48.122;11.538;2022-11-20T08:18:21;2.30;;;1.92;;
47519;SDS011;33252;48.122;11.538;2022-11-20T08:20:47;2.90;;;2.33;;
47519;SDS011;33252;48.122;11.538;2022-11-20T08:23:13;2.72;;;1.90;;
47519;SDS011;33252;48.122;11.538;2022-11-20T08:25:39;3.42;;;1.65;;
47519;SDS011;33252;48.122;11.538;2022-11-20T08:28:06;2.15;;;1.58;;
47519;SDS011;33252;48.122;11.538;2022-11-20T08:30:34;2.83;;;1.70;;
47519;SDS011;33252;48.122;11.538;2022-11-20T08:33:01;3.92;;;2.03;;
47519;SDS011;33252;48.122;11.538;2022-11-20T08:35:28;3.85;;;1.48;;
47519;SDS011;33252;48.122;11.538;2022-11-20T08:37:58;3.00;;;1.58;;
47519;SDS011;33252;48.122;11.538;2022-11-20T08:40:24;4.35;;;1.63;;
47519;SDS011;33252;48.122;11.538;2022-11-20T08:42:50;3.75;;;1.40;;
47519;SDS011;33252;48.122;11.538;2022-11-20T08:45:16;3.97;;;1.40;;
47519;SDS011;33252;48.122;11.538;2022-11-20T08:47:43;2.17;;;1.33;;
47519;SDS011;33252;48.122;11.538;2022-11-20T08:50:10;2.95;;;1.65;;
47519;SDS011;33252;48.122;11.538;2022-11-20T08:52:36;5.80;;;1.80;;
47519;SDS011;33252;48.122;11.538;2022-11-20T08:55:03;2.30;;;1.60;;
47519;SDS011;33252;48.122;11.538;2022-11-20T08:57:33;2.97;;;1.65;;
47519;SDS011;33252;48.122;11.538;2022-11-20T09:00:00;2.83;;;1.70;;
47519;SDS011;33252;48.122;11.538;2022-11-20T09:02:26;3.13;;;1.60;;
47519;SDS011;33252;48.122;11.538;2022-11-20T09:04:52;2.55;;;1.42;;
47519;SDS011;33252;48.122;11.538;2022-11-20T09:07:18;2.50;;;1.60;;
47519;SDS011;33252;48.122;11.538;2022-11-20T09:09:44;3.10;;;1.45;;
47519;SDS011;33252;48.122;11.538;2022-11-20T09:12:10;2.67;;;1.58;;
47519;SDS011;33252;48.122;11.538;2022-11-20T09:14:36;2.97;;;1.90;;
47519;SDS011;33252;48.122;11.538;2022-11-20T09:17:01;3.03;;;1.67;;
47519;SDS011;33252;48.122;11.538;2022-11-20T09:19:27;3.58;;;1.08;;
47519;SDS011;33252;48.122;11.538;2022-11-20T09:21:53;2.58;;;1.55;;
47519;SDS011;33252;48.122;11.538;2022-11-20T09:24:18;3.17;;;1.60;;
47519;SDS011;33252;48.122;11.538;2022-11-20T09:26:45;2.22;;;1.30;;
47519;SDS011;33252;48.122;11.538;2022-11-20T09:29:11;5.20;;;1.48;;
47519;SDS011;33252;48.122;11.538;2022-11-20T09:31:37;1.52;;;1.00;;
47519;SDS011;33252;48.122;11.538;2022-11-20T09:34:03;2.70;;;0.90;;
47519;SDS011;33252;48.122;11.538;2022-11-20T09:36:29;2.72;;;1.10;;
47519;SDS011;33252;48.122;11.538;2022-11-20T09:38:54;2.50;;;1.00;;
47519;SDS011;33252;48.122;11.538;2022-11-20T09:46:38;1.95;;;0.95;;
47519;SDS011;33252;48.122;11.538;2022-11-20T09:49:23;2.42;;;1.00;;
47519;SDS011;33252;48.122;11.538;2022-11-20T09:55:11;1.48;;;0.77;;
47519;SDS011;33252;48.122;11.538;2022-11-20T09:57:42;2.70;;;1.40;;
47519;SDS011;33252;48.122;11.538;2022-11-20T10:00:11;1.58;;;1.02;;
47519;SDS011;33252;48.122;11.538;2022-11-20T10:02:41;3.05;;;1.20;;
47519;SDS011;33252;48.122;11.538;2022-11-20T10:05:35;1.35;;;0.70;;
47519;SDS011;33252;48.122;11.538;2022-11-20T10:08:20;2.17;;;0.95;;
47519;SDS011;33252;48.122;11.538;2022-11-20T10:10:51;1.90;;;0.70;;
47519;SDS011;33252;48.122;11.538;2022-11-20T10:18:45;1.75;;;0.90;;
47519;SDS011;33252;48.122;11.538;2022-11-20T10:29:32;2.72;;;0.80;;
47519;SDS011;33252;48.122;11.538;2022-11-20T10:32:03;1.85;;;1.05;;
47519;SDS011;33252;48.122;11.538;2022-11-20T10:37:13;1.45;;;0.70;;
47519;SDS011;33252;48.122;11.538;2022-11-20T10:42:13;1.15;;;0.65;;
47519;SDS011;33252;48.122;11.538;2022-11-20T10:44:43;2.28;;;0.88;;
47519;SDS011;33252;48.122;11.538;2022-11-20T10:47:27;0.88;;;0.63;;
47519;SDS011;33252;48.122;11.538;2022-11-20T10:49:55;1.17;;;0.75;;
47519;SDS011;33252;48.122;11.538;2022-11-20T11:00:19;1.70;;;0.90;;
47519;SDS011;33252;48.122;11.538;2022-11-20T11:02:52;1.55;;;0.73;;
47519;SDS011;33252;48.122;11.538;2022-11-20T11:07:50;1.92;;;0.60;;
47519;SDS011;33252;48.122;11.538;2022-11-20T11:13:03;1.20;;;0.60;;
47519;SDS011;33252;48.122;11.538;2022-11-20T11:15:39;3.22;;;1.48;;
47519;SDS011;33252;48.122;11.538;2022-11-20T11:18:09;3.97;;;0.98;;
47519;SDS011;33252;48.122;11.538;2022-11-20T11:20:35;2.22;;;0.60;;
47519;SDS011;33252;48.122;11.538;2022-11-20T11:23:02;3.35;;;0.93;;
47519;SDS011;33252;48.122;11.538;2022-11-20T11:25:36;1.30;;;0.68;;
47519;SDS011;33252;48.122;11.538;2022-11-20T11:28:19;1.27;;;0.63;;
47519;SDS011;33252;48.122;11.538;2022-11-20T11:30:51;1.70;;;0.60;;
47519;SDS011;33252;48.122;11.538;2022-11-20T11:35:56;2.83;;;1.20;;
47519;SDS011;33252;48.122;11.538;2022-11-20T11:38:32;2.85;;;0.95;;
47519;SDS011;33252;48.122;11.538;2022-11-20T11:41:02;0.40;;;0.40;;
47519;SDS011;33252;48.122;11.538;2022-11-20T11:43:30;4.15;;;0.80;;
47519;SDS011;33252;48.122;11.538;2022-11-20T11:48:59;2.05;;;1.00;;
47519;SDS011;33252;48.122;11.538;2022-11-20T11:51:31;0.77;;;0.57;;
47519;SDS011;33252;48.122;11.538;2022-11-20T11:54:26;2.00;;;1.00;;
47519;SDS011;33252;48.122;11.538;2022-11-20T11:56:54;1.17;;;0.80;;
47519;SDS011;33252;48.122;11.538;2022-11-20T11:59:23;2.60;;;0.70;;
47519;SDS011;33252;48.122;11.538;2022-11-20T12:01:58;2.28;;;0.95;;
47519;SDS011;33252;48.122;11.538;2022-11-20T12:07:22;1.77;;;1.25;;
47519;SDS011;33252;48.122;11.538;2022-11-20T12:10:00;1.90;;;0.90;;
47519;SDS011;33252;48.122;11.538;2022-11-20T12:12:30;1.42;;;0.60;;
47519;SDS011;33252;48.122;11.538;2022-11-20T12:15:22;1.65;;;1.05;;
47519;SDS011;33252;48.122;11.538;2022-11-20T12:17:53;2.05;;;0.95;;
47519;SDS011;33252;48.122;11.538;2022-11-20T12:20:19;1.88;;;0.60;;
47519;SDS011;33252;48.122;11.538;2022-11-20T12:22:56;2.05;;;0.70;;
47519;SDS011;33252;48.122;11.538;2022-11-20T12:25:39;0.77;;;0.52;;
47519;SDS011;33252;48.122;11.538;2022-11-20T12:31:05;4.00;;;1.05;;
47519;SDS011;33252;48.122;11.538;2022-11-20T12:33:51;1.77;;;1.13;;
47519;SDS011;33252;48.122;11.538;2022-11-20T12:39:35;1.95;;;1.20;;
47519;SDS011;33252;48.122;11.538;2022-11-20T12:42:15;1.13;;;0.70;;
47519;SDS011;33252;48.122;11.538;2022-11-20T12:48:08;1.65;;;0.88;;
47519;SDS011;33252;48.122;11.538;2022-11-20T12:51:32;1.65;;;1.00;;
47519;SDS011;33252;48.122;11.538;2022-11-20T12:54:06;3.80;;;1.65;;
47519;SDS011;33252;48.122;11.538;2022-11-20T13:01:58;2.35;;;1.20;;
47519;SDS011;33252;48.122;11.538;2022-11-20T13:07:09;1.60;;;1.02;;
47519;SDS011;33252;48.122;11.538;2022-11-20T13:09:48;1.30;;;0.73;;
47519;SDS011;33252;48.122;11.538;2022-11-20T13:12:35;1.92;;;1.13;;
47519;SDS011;33252;48.122;11.538;2022-11-20T13:18:00;2.83;;;1.30;;
47519;SDS011;33252;48.122;11.538;2022-11-20T13:20:28;2.35;;;1.63;;
47519;SDS011;33252;48.122;11.538;2022-11-20T13:22:56;2.13;;;1.27;;
47519;SDS011;33252;48.122;11.538;2022-11-20T13:28:03;2.45;;;1.08;;
47519;SDS011;33252;48.122;11.538;2022-11-20T13:30:35;4.07;;;1.77;;
47519;SDS011;33252;48.122;11.538;2022-11-20T13:33:09;2.20;;;1.60;;
47519;SDS011;33252;48.122;11.538;2022-11-20T13:35:57;2.67;;;1.40;;
47519;SDS011;33252;48.122;11.538;2022-11-20T13:38:28;3.22;;;1.50;;
47519;SDS011;33252;48.122;11.538;2022-11-20T13:41:07;3.55;;;1.30;;
47519;SDS011;33252;48.122;11.538;2022-11-20T13:43:52;2.03;;;1.27;;
47519;SDS011;33252;48.122;11.538;2022-11-20T13:46:19;2.70;;;1.38;;
47519;SDS011;33252;48.122;11.538;2022-11-20T13:48:49;3.20;;;1.45;;
47519;SDS011;33252;48.122;11.538;2022-11-20T14:02:39;2.20;;;1.42;;
47519;SDS011;33252;48.122;11.538;2022-11-20T14:05:11;3.85;;;2.90;;
47519;SDS011;33252;48.122;11.538;2022-11-20T14:07:47;3.75;;;1.40;;
47519;SDS011;33252;48.122;11.538;2022-11-20T14:10:27;2.20;;;1.40;;
47519;SDS011;33252;48.122;11.538;2022-11-20T14:12:54;3.70;;;1.85;;
47519;SDS011;33252;48.122;11.538;2022-11-20T14:15:27;1.67;;;1.40;;
47519;SDS011;33252;48.122;11.538;2022-11-20T14:17:55;2.45;;;1.60;;
47519;SDS011;33252;48.122;11.538;2022-11-20T14:20:22;2.63;;;1.52;;
47519;SDS011;33252;48.122;11.538;2022-11-20T14:22:52;4.30;;;1.50;;
47519;SDS011;33252;48.122;11.538;2022-11-20T14:25:25;2.35;;;1.25;;
47519;SDS011;33252;48.122;11.538;2022-11-20T14:27:59;1.90;;;1.17;;
47519;SDS011;33252;48.122;11.538;2022-11-20T14:30:27;4.28;;;1.40;;
47519;SDS011;33252;48.122;11.538;2022-11-20T14:33:09;1.60;;;1.15;;
47519;SDS011;33252;48.122;11.538;2022-11-20T14:35:38;1.60;;;1.10;;
47519;SDS011;33252;48.122;11.538;2022-11-20T14:38:10;2.28;;;0.95;;
47519;SDS011;33252;48.122;11.538;2022-11-20T14:40:38;2.25;;;1.08;;
47519;SDS011;33252;48.122;11.538;2022-11-20T14:43:21;1.80;;;1.00;;
47519;SDS011;33252;48.122;11.538;2022-11-20T14:45:52;1.30;;;0.70;;
47519;SDS011;33252;48.122;11.538;2022-11-20T14:48:24;1.83;;;0.82;;
47519;SDS011;33252;48.122;11.538;2022-11-20T14:50:56;1.33;;;0.70;;
47519;SDS011;33252;48.122;11.538;2022-11-20T14:53:23;2.45;;;0.75;;
47519;SDS011;33252;48.122;11.538;2022-11-20T14:55:57;2.83;;;0.55;;
47519;SDS011;33252;48.122;11.538;2022-11-20T14:58:25;1.27;;;0.40;;
47519;SDS011;33252;48.122;11.538;2022-11-20T15:00:54;0.60;;;0.40;;
47519;SDS011;33252;48.122;11.538;2022-11-20T15:03:30;0.73;;;0.50;;
47519;SDS011;33252;48.122;11.538;2022-11-20T15:06:03;1.27;;;0.60;;
47519;SDS011;33252;48.122;11.538;2022-11-20T15:08:29;1.88;;;0.40;;
47519;SDS011;33252;48.122;11.538;2022-11-20T15:10:55;1.33;;;0.40;;
47519;SDS011;33252;48.122;11.538;2022-11-20T15:13:26;2.28;;;0.50;;
47519;SDS011;33252;48.122;11.538;2022-11-20T15:15:53;0.32;;;0.25;;
47519;SDS011;33252;48.122;11.538;2022-11-20T15:20:52;1.67;;;1.05;;
47519;SDS011;33252;48.122;11.538;2022-11-20T15:23:21;0.63;;;0.40;;
47519;SDS011;33252;48.122;11.538;2022-11-20T15:25:47;0.63;;;0.43;;
47519;SDS011;33252;48.122;11.538;2022-11-20T15:28:16;1.30;;;0.50;;
47519;SDS011;33252;48.122;11.538;2022-11-20T15:30:44;1.65;;;0.50;;
47519;SDS011;33252;48.122;11.538;2022-11-20T15:33:11;1.55;;;0.73;;
47519;SDS011;33252;48.122;11.538;2022-11-20T15:35:37;2.78;;;0.73;;
47519;SDS011;33252;48.122;11.538;2022-11-20T15:38:03;2.00;;;0.70;;
47519;SDS011;33252;48.122;11.538;2022-11-20T15:40:29;1.15;;;0.52;;
47519;SDS011;33252;48.122;11.538;2022-11-20T15:42:54;1.67;;;0.70;;
47519;SDS011;33252;48.122;11.538;2022-11-20T15:45:50;0.70;;;0.45;;
47519;SDS011;33252;48.122;11.538;2022-11-20T15:48:58;1.00;;;0.45;;
47519;SDS011;33252;48.122;11.538;2022-11-20T15:51:25;1.83;;;0.80;;
47519;SDS011;33252;48.122;11.538;2022-11-20T15:53:54;2.72;;;1.02;;
47519;SDS011;33252;48.122;11.538;2022-11-20T15:56:19;2.50;;;0.88;;
47519;SDS011;33252;48.122;11.538;2022-11-20T15:58:45;2.42;;;1.13;;
47519;SDS011;33252;48.122;11.538;2022-11-20T16:01:11;2.20;;;1.08;;
47519;SDS011;33252;48.122;11.538;2022-11-20T16:03:39;2.08;;;1.10;;
47519;SDS011;33252;48.122;11.538;2022-11-20T16:06:05;1.85;;;1.00;;
47519;SDS011;33252;48.122;11.538;2022-11-20T16:08:31;1.45;;;0.93;;
47519;SDS011;33252;48.122;11.538;2022-11-20T16:10:56;3.45;;;1.40;;
47519;SDS011;33252;48.122;11.538;2022-11-20T16:13:22;1.92;;;1.30;;
47519;SDS011;33252;48.122;11.538;2022-11-20T16:16:19;2.47;;;1.20;;
47519;SDS011;33252;48.122;11.538;2022-11-20T16:18:48;1.40;;;0.88;;
47519;SDS011;33252;48.122;11.538;2022-11-20T16:21:14;4.40;;;1.35;;
47519;SDS011;33252;48.122;11.538;2022-11-20T16:23:41;2.15;;;1.27;;
47519;SDS011;33252;48.122;11.538;2022-11-20T16:26:14;2.65;;;1.80;;
47519;SDS011;33252;48.122;11.538;2022-11-20T16:28:45;5.15;;;2.10;;
47519;SDS011;33252;48.122;11.538;2022-11-20T16:31:16;2.00;;;1.35;;
47519;SDS011;33252;48.122;11.538;2022-11-20T16:33:48;4.07;;;1.67;;
47519;SDS011;33252;48.122;11.538;2022-11-20T16:36:16;4.47;;;2.13;;
47519;SDS011;33252;48.122;11.538;2022-11-20T16:38:42;3.15;;;2.20;;
47519;SDS011;33252;48.122;11.538;2022-11-20T16:41:08;3.90;;;2.03;;
47519;SDS011;33252;48.122;11.538;2022-11-20T16:43:48;2.88;;;1.88;;
47519;SDS011;33252;48.122;11.538;2022-11-20T16:46:16;3.70;;;2.10;;
47519;SDS011;33252;48.122;11.538;2022-11-20T16:48:43;4.05;;;1.98;;
47519;SDS011;33252;48.122;11.538;2022-11-20T16:51:10;4.25;;;2.28;;
47519;SDS011;33252;48.122;11.538;2022-11-20T16:53:37;6.95;;;3.25;;
47519;SDS011;33252;48.122;11.538;2022-11-20T16:56:17;9.27;;;3.85;;
47519;SDS011;33252;48.122;11.538;2022-11-20T16:58:44;10.50;;;5.00;;
47519;SDS011;33252;48.122;11.538;2022-11-20T17:01:12;9.68;;;4.00;;
47519;SDS011;33252;48.122;11.538;2022-11-20T17:03:40;5.90;;;3.92;;
47519;SDS011;33252;48.122;11.538;2022-11-20T17:06:17;4.45;;;3.42;;